RYR9VG LEXJ-EGSS
Flight info
| Callsign | RYR9VG |
|---|---|
| Flight time | 1h 20m |
| Altitude | 20000 |
| Route | VADOX N864 DELOG/N0450F360 DCT DIDIG UP87 TERPO UN867 EKRAS UM184 DIKRO/N0447F340 UM185 TELTU |
| Aircraft | B38M/M-SDE1FGHILORVWXY/HB1 |
Departure
| Time | 2026-05-09 06:25 |
|---|---|
| Airport | Seve Ballesteros-Santander Airport (LEXJ) |
Arrival
| Time | 2026-05-09 07:45 |
|---|---|
| Airport | London Stansted Airport (EGSS) |
| Time | Latitude | Longitude | Altitude | Speed | Heading |
|---|---|---|---|---|---|
| 2026-05-09 05:57 | 43.42436 | -3.82479 | 27 ft | 0 kts | 244° |
| 2026-05-09 06:18 | 43.42435 | -3.82485 | 23 ft | 1 kts | 258° |
| 2026-05-09 06:18 | 43.42438 | -3.82493 | 27 ft | 1 kts | 299° |
| 2026-05-09 06:18 | 43.42443 | -3.82496 | 27 ft | 1 kts | 346° |
| 2026-05-09 06:18 | 43.42455 | -3.82484 | 25 ft | 4 kts | 54° |
| 2026-05-09 06:19 | 43.42462 | -3.82421 | 23 ft | 10 kts | 102° |
| 2026-05-09 06:19 | 43.42433 | -3.82306 | 23 ft | 15 kts | 110° |
| 2026-05-09 06:19 | 43.42398 | -3.82175 | 26 ft | 11 kts | 110° |
| 2026-05-09 06:19 | 43.42392 | -3.82118 | 23 ft | 5 kts | 66° |
| 2026-05-09 06:20 | 43.42417 | -3.82100 | 23 ft | 5 kts | 18° |
| 2026-05-09 06:20 | 43.42463 | -3.82078 | 24 ft | 10 kts | 20° |
| 2026-05-09 06:20 | 43.42529 | -3.82037 | 23 ft | 10 kts | 49° |
| 2026-05-09 06:20 | 43.42521 | -3.81938 | 23 ft | 12 kts | 110° |
| 2026-05-09 06:21 | 43.42488 | -3.81812 | 25 ft | 16 kts | 110° |
| 2026-05-09 06:21 | 43.42441 | -3.81639 | 24 ft | 22 kts | 110° |
| 2026-05-09 06:21 | 43.42392 | -3.81453 | 24 ft | 15 kts | 110° |
| 2026-05-09 06:21 | 43.42396 | -3.81344 | 24 ft | 11 kts | 37° |
| 2026-05-09 06:22 | 43.42472 | -3.81302 | 27 ft | 12 kts | 21° |
| 2026-05-09 06:22 | 43.42513 | -3.81252 | 25 ft | 3 kts | 100° |
| 2026-05-09 06:22 | 43.42500 | -3.81214 | 27 ft | 7 kts | 116° |
| 2026-05-09 06:22 | 43.42470 | -3.81116 | 26 ft | 15 kts | 109° |
| 2026-05-09 06:23 | 43.42428 | -3.80963 | 26 ft | 18 kts | 112° |
| 2026-05-09 06:23 | 43.42385 | -3.80801 | 25 ft | 17 kts | 109° |
| 2026-05-09 06:23 | 43.42332 | -3.80704 | 22 ft | 9 kts | 135° |
| 2026-05-09 06:23 | 43.42325 | -3.80649 | 24 ft | 5 kts | 34° |
| 2026-05-09 06:24 | 43.42345 | -3.80661 | 22 ft | 3 kts | 297° |
| 2026-05-09 06:24 | 43.42349 | -3.80672 | 22 ft | 0 kts | 292° |
| 2026-05-09 06:24 | 43.42368 | -3.80743 | 23 ft | 38 kts | 290° |
| 2026-05-09 06:24 | 43.42564 | -3.81472 | 27 ft | 122 kts | 290° |
| 2026-05-09 06:25 | 43.42939 | -3.82849 | 196 ft | 174 kts | 291° |
| 2026-05-09 06:25 | 43.43380 | -3.84391 | 1204 ft | 173 kts | 291° |
| 2026-05-09 06:25 | 43.43817 | -3.85964 | 2026 ft | 183 kts | 288° |
| 2026-05-09 06:25 | 43.44285 | -3.87695 | 2669 ft | 203 kts | 286° |
| 2026-05-09 06:26 | 43.45097 | -3.89462 | 3154 ft | 241 kts | 317° |
| 2026-05-09 06:26 | 43.46690 | -3.90501 | 3746 ft | 270 kts | 352° |
| 2026-05-09 06:26 | 43.48635 | -3.90642 | 4597 ft | 285 kts | 356° |
| 2026-05-09 06:26 | 43.50639 | -3.90804 | 5662 ft | 290 kts | 355° |
| 2026-05-09 06:27 | 43.52670 | -3.90987 | 6709 ft | 295 kts | 355° |
| 2026-05-09 06:27 | 43.54712 | -3.91176 | 7704 ft | 299 kts | 354° |
| 2026-05-09 06:27 | 43.56802 | -3.91374 | 8734 ft | 303 kts | 355° |
| 2026-05-09 06:27 | 43.58911 | -3.91573 | 9792 ft | 305 kts | 354° |
| 2026-05-09 06:28 | 43.61067 | -3.91781 | 10489 ft | 319 kts | 354° |
| 2026-05-09 06:28 | 43.63351 | -3.91999 | 10984 ft | 338 kts | 354° |
| 2026-05-09 06:28 | 43.65765 | -3.92230 | 11606 ft | 352 kts | 354° |
| 2026-05-09 06:28 | 43.68237 | -3.92468 | 12384 ft | 358 kts | 354° |
| 2026-05-09 06:29 | 43.70735 | -3.92708 | 13280 ft | 362 kts | 354° |
| 2026-05-09 06:29 | 43.73262 | -3.92951 | 14047 ft | 367 kts | 354° |
| 2026-05-09 06:29 | 43.75790 | -3.93194 | 14782 ft | 371 kts | 354° |
| 2026-05-09 06:29 | 43.78381 | -3.93443 | 15507 ft | 376 kts | 354° |
| 2026-05-09 06:30 | 43.81012 | -3.93697 | 16200 ft | 381 kts | 354° |
| 2026-05-09 06:30 | 43.83676 | -3.93956 | 16880 ft | 385 kts | 354° |
| 2026-05-09 06:30 | 43.86368 | -3.94216 | 17558 ft | 390 kts | 354° |
| 2026-05-09 06:30 | 43.89093 | -3.94480 | 18201 ft | 395 kts | 354° |
| 2026-05-09 06:31 | 43.91856 | -3.94748 | 18757 ft | 399 kts | 354° |
| 2026-05-09 06:31 | 43.94604 | -3.95014 | 19331 ft | 403 kts | 354° |
| 2026-05-09 06:31 | 43.97451 | -3.95290 | 19875 ft | 408 kts | 354° |
| 2026-05-09 06:31 | 44.00276 | -3.95565 | 20363 ft | 414 kts | 353° |
| 2026-05-09 06:32 | 44.03157 | -3.95844 | 20954 ft | 417 kts | 353° |
| 2026-05-09 06:32 | 44.06063 | -3.96126 | 21493 ft | 421 kts | 353° |
| 2026-05-09 06:32 | 44.09002 | -3.96411 | 22033 ft | 424 kts | 353° |
| 2026-05-09 06:33 | 44.14941 | -3.96992 | 23115 ft | 431 kts | 353° |
| 2026-05-09 06:33 | 44.17948 | -3.97287 | 23626 ft | 434 kts | 353° |
| 2026-05-09 06:33 | 44.20975 | -3.97582 | 24109 ft | 436 kts | 353° |
| 2026-05-09 06:34 | 44.27028 | -3.98174 | 25000 ft | 441 kts | 353° |
| 2026-05-09 06:34 | 44.30105 | -3.98369 | 25429 ft | 446 kts | 1° |
| 2026-05-09 06:34 | 44.33164 | -3.97571 | 25881 ft | 449 kts | 19° |
| 2026-05-09 06:34 | 44.35964 | -3.95613 | 26298 ft | 451 kts | 35° |
| 2026-05-09 06:35 | 44.38556 | -3.93148 | 26738 ft | 453 kts | 35° |
| 2026-05-09 06:35 | 44.41166 | -3.90663 | 27148 ft | 455 kts | 36° |
| 2026-05-09 06:35 | 44.43784 | -3.88133 | 27553 ft | 457 kts | 36° |
| 2026-05-09 06:35 | 44.46404 | -3.85585 | 27959 ft | 460 kts | 36° |
| 2026-05-09 06:36 | 44.49033 | -3.83017 | 28359 ft | 462 kts | 36° |
| 2026-05-09 06:36 | 44.51678 | -3.80431 | 28669 ft | 466 kts | 36° |
| 2026-05-09 06:36 | 44.54317 | -3.77845 | 28889 ft | 471 kts | 36° |
| 2026-05-09 06:36 | 44.57005 | -3.75209 | 29408 ft | 471 kts | 36° |
| 2026-05-09 06:37 | 44.59690 | -3.72574 | 29846 ft | 472 kts | 36° |
| 2026-05-09 06:37 | 44.62394 | -3.69916 | 30124 ft | 475 kts | 36° |
| 2026-05-09 06:37 | 44.65107 | -3.67246 | 30407 ft | 477 kts | 37° |
| 2026-05-09 06:37 | 44.67834 | -3.64560 | 30689 ft | 480 kts | 37° |
| 2026-05-09 06:38 | 44.70582 | -3.61850 | 30961 ft | 483 kts | 37° |
| 2026-05-09 06:38 | 44.73339 | -3.59129 | 31231 ft | 485 kts | 37° |
| 2026-05-09 06:38 | 44.76110 | -3.56390 | 31496 ft | 488 kts | 37° |
| 2026-05-09 06:38 | 44.78894 | -3.53633 | 31758 ft | 491 kts | 37° |
| 2026-05-09 06:39 | 44.81700 | -3.50852 | 32020 ft | 493 kts | 37° |
| 2026-05-09 06:39 | 44.84482 | -3.48091 | 32273 ft | 496 kts | 37° |
| 2026-05-09 06:39 | 44.87316 | -3.45277 | 32524 ft | 498 kts | 37° |
| 2026-05-09 06:39 | 44.90156 | -3.42451 | 32752 ft | 501 kts | 37° |
| 2026-05-09 06:40 | 44.95920 | -3.36710 | 33139 ft | 508 kts | 37° |
| 2026-05-09 06:40 | 44.98801 | -3.33831 | 33571 ft | 507 kts | 37° |
| 2026-05-09 06:40 | 45.01689 | -3.30945 | 33876 ft | 508 kts | 37° |
| 2026-05-09 06:41 | 45.04567 | -3.28066 | 34176 ft | 508 kts | 37° |
| 2026-05-09 06:41 | 45.07447 | -3.25180 | 34510 ft | 507 kts | 37° |
| 2026-05-09 06:41 | 45.10279 | -3.22337 | 34848 ft | 505 kts | 37° |
| 2026-05-09 06:41 | 45.13141 | -3.19462 | 35196 ft | 504 kts | 37° |
| 2026-05-09 06:42 | 45.16001 | -3.16586 | 35557 ft | 502 kts | 37° |
| 2026-05-09 06:42 | 45.18840 | -3.13725 | 35885 ft | 500 kts | 37° |
| 2026-05-09 06:42 | 45.24495 | -3.08020 | 35860 ft | 495 kts | 36° |
| 2026-05-09 06:43 | 45.30131 | -3.02317 | 35879 ft | 499 kts | 36° |
| 2026-05-09 06:43 | 45.35754 | -2.96617 | 35891 ft | 499 kts | 37° |
| 2026-05-09 06:44 | 45.41385 | -2.90891 | 35885 ft | 496 kts | 37° |
| 2026-05-09 06:44 | 45.47013 | -2.85156 | 35888 ft | 496 kts | 37° |
| 2026-05-09 06:45 | 45.52627 | -2.79421 | 35894 ft | 496 kts | 37° |
| 2026-05-09 06:45 | 45.58189 | -2.73721 | 35899 ft | 493 kts | 37° |
| 2026-05-09 06:46 | 45.63773 | -2.67988 | 35894 ft | 494 kts | 37° |
| 2026-05-09 06:46 | 45.69353 | -2.62244 | 35900 ft | 494 kts | 37° |
| 2026-05-09 06:47 | 45.74934 | -2.56485 | 35912 ft | 494 kts | 37° |
| 2026-05-09 06:47 | 45.80449 | -2.50778 | 35904 ft | 490 kts | 37° |
| 2026-05-09 06:48 | 45.85974 | -2.45048 | 35910 ft | 490 kts | 37° |
| 2026-05-09 06:48 | 45.91507 | -2.39298 | 35909 ft | 490 kts | 37° |
| 2026-05-09 06:49 | 45.97039 | -2.33535 | 35911 ft | 491 kts | 37° |
| 2026-05-09 06:49 | 46.02558 | -2.27786 | 35914 ft | 490 kts | 34° |
| 2026-05-09 06:50 | 46.05570 | -2.25526 | 35894 ft | 488 kts | 18° |
| 2026-05-09 06:50 | 46.08851 | -2.24317 | 35938 ft | 487 kts | 10° |
| 2026-05-09 06:50 | 46.15505 | -2.22529 | 35930 ft | 489 kts | 9° |
| 2026-05-09 06:51 | 46.22211 | -2.20857 | 35921 ft | 489 kts | 8° |
| 2026-05-09 06:51 | 46.28925 | -2.19211 | 35925 ft | 489 kts | 8° |
| 2026-05-09 06:52 | 46.35633 | -2.17565 | 35935 ft | 489 kts | 9° |
| 2026-05-09 06:52 | 46.42344 | -2.15916 | 35932 ft | 489 kts | 8° |
| 2026-05-09 06:53 | 46.49056 | -2.14259 | 35933 ft | 489 kts | 9° |
| 2026-05-09 06:53 | 46.55771 | -2.12600 | 35947 ft | 489 kts | 9° |
| 2026-05-09 06:54 | 46.62446 | -2.10946 | 35936 ft | 489 kts | 9° |
| 2026-05-09 06:54 | 46.69158 | -2.09280 | 35941 ft | 489 kts | 9° |
| 2026-05-09 06:55 | 46.75877 | -2.07607 | 35947 ft | 489 kts | 9° |
| 2026-05-09 06:55 | 46.82596 | -2.05929 | 35949 ft | 489 kts | 9° |
| 2026-05-09 06:56 | 46.89262 | -2.04260 | 35948 ft | 489 kts | 9° |
| 2026-05-09 06:56 | 46.95970 | -2.02578 | 35954 ft | 489 kts | 9° |
| 2026-05-09 06:57 | 47.02675 | -2.00907 | 35950 ft | 489 kts | 8° |
| 2026-05-09 06:57 | 47.09388 | -1.99244 | 35958 ft | 489 kts | 8° |
| 2026-05-09 06:58 | 47.16093 | -1.97579 | 35966 ft | 489 kts | 8° |
| 2026-05-09 06:58 | 47.22752 | -1.95921 | 35965 ft | 487 kts | 8° |
| 2026-05-09 06:59 | 47.29441 | -1.94251 | 35967 ft | 488 kts | 8° |
| 2026-05-09 06:59 | 47.36027 | -1.91971 | 35949 ft | 487 kts | 25° |
| 2026-05-09 07:00 | 47.42140 | -1.87649 | 35956 ft | 486 kts | 26° |
| 2026-05-09 07:00 | 47.48217 | -1.83312 | 35988 ft | 485 kts | 26° |
| 2026-05-09 07:01 | 47.54285 | -1.78937 | 35991 ft | 485 kts | 26° |
| 2026-05-09 07:01 | 47.60353 | -1.74548 | 36000 ft | 484 kts | 26° |
| 2026-05-09 07:02 | 47.66341 | -1.70206 | 35991 ft | 481 kts | 26° |
| 2026-05-09 07:02 | 47.72361 | -1.65829 | 35989 ft | 481 kts | 26° |
| 2026-05-09 07:03 | 47.78371 | -1.61450 | 36001 ft | 481 kts | 27° |
| 2026-05-09 07:03 | 47.84380 | -1.57058 | 36011 ft | 480 kts | 27° |
| 2026-05-09 07:04 | 47.90365 | -1.52674 | 36017 ft | 480 kts | 27° |
| 2026-05-09 07:04 | 47.96323 | -1.48298 | 36019 ft | 480 kts | 27° |
| 2026-05-09 07:05 | 48.02471 | -1.44439 | 36005 ft | 481 kts | 11° |
| 2026-05-09 07:05 | 48.05794 | -1.44030 | 36027 ft | 480 kts | 358° |
| 2026-05-09 07:05 | 48.09145 | -1.44162 | 36011 ft | 483 kts | 358° |
| 2026-05-09 07:06 | 48.15876 | -1.44541 | 36021 ft | 483 kts | 357° |
| 2026-05-09 07:06 | 48.19193 | -1.44768 | 36016 ft | 483 kts | 357° |
| 2026-05-09 07:07 | 48.25909 | -1.45246 | 36024 ft | 484 kts | 357° |
| 2026-05-09 07:07 | 48.33736 | -1.45811 | 36025 ft | 484 kts | 357° |
| 2026-05-09 07:08 | 48.39377 | -1.46219 | 36028 ft | 484 kts | 358° |
| 2026-05-09 07:08 | 48.46063 | -1.46704 | 36026 ft | 484 kts | 358° |
| 2026-05-09 07:09 | 48.52804 | -1.47194 | 36025 ft | 484 kts | 358° |
| 2026-05-09 07:09 | 48.59537 | -1.47684 | 36024 ft | 484 kts | 358° |
| 2026-05-09 07:10 | 48.66271 | -1.48176 | 36021 ft | 484 kts | 358° |
| 2026-05-09 07:10 | 48.73008 | -1.48671 | 36027 ft | 485 kts | 358° |
| 2026-05-09 07:11 | 48.79747 | -1.49165 | 36024 ft | 485 kts | 358° |
| 2026-05-09 07:11 | 48.86485 | -1.49661 | 36028 ft | 485 kts | 358° |
| 2026-05-09 07:12 | 48.89837 | -1.49418 | 36008 ft | 481 kts | 13° |
| 2026-05-09 07:12 | 48.93019 | -1.47998 | 36042 ft | 477 kts | 21° |
| 2026-05-09 07:12 | 48.99322 | -1.44632 | 36029 ft | 479 kts | 22° |
| 2026-05-09 07:13 | 49.05552 | -1.41172 | 36032 ft | 480 kts | 22° |
| 2026-05-09 07:13 | 49.11815 | -1.37648 | 36034 ft | 480 kts | 22° |
| 2026-05-09 07:14 | 49.18082 | -1.34111 | 36038 ft | 480 kts | 22° |
| 2026-05-09 07:14 | 49.24347 | -1.30566 | 36029 ft | 480 kts | 23° |
| 2026-05-09 07:15 | 49.30624 | -1.27005 | 36042 ft | 480 kts | 23° |
| 2026-05-09 07:15 | 49.36893 | -1.23436 | 36049 ft | 481 kts | 23° |
| 2026-05-09 07:16 | 49.43170 | -1.19856 | 36048 ft | 481 kts | 23° |
| 2026-05-09 07:16 | 49.49446 | -1.16265 | 36051 ft | 481 kts | 23° |
| 2026-05-09 07:17 | 49.55672 | -1.12695 | 36059 ft | 480 kts | 23° |
| 2026-05-09 07:17 | 49.58681 | -1.10537 | 36024 ft | 474 kts | 37° |
| 2026-05-09 07:17 | 49.61292 | -1.07494 | 36075 ft | 470 kts | 42° |
| 2026-05-09 07:18 | 49.66572 | -1.01429 | 36079 ft | 473 kts | 41° |
| 2026-05-09 07:18 | 49.71771 | -0.95317 | 36063 ft | 472 kts | 41° |
| 2026-05-09 07:19 | 49.74507 | -0.92471 | 36012 ft | 477 kts | 30° |
| 2026-05-09 07:19 | 49.77608 | -0.90688 | 35639 ft | 476 kts | 14° |
| 2026-05-09 07:19 | 49.80916 | -0.90037 | 34997 ft | 478 kts | 7° |
| 2026-05-09 07:19 | 49.84192 | -0.89525 | 34323 ft | 479 kts | 9° |
| 2026-05-09 07:20 | 49.87517 | -0.89015 | 33653 ft | 479 kts | 9° |
| 2026-05-09 07:20 | 49.90831 | -0.88529 | 33082 ft | 476 kts | 8° |
| 2026-05-09 07:20 | 49.94110 | -0.88063 | 32611 ft | 470 kts | 8° |
| 2026-05-09 07:20 | 49.97360 | -0.87601 | 32138 ft | 466 kts | 8° |
| 2026-05-09 07:21 | 50.00584 | -0.87142 | 31604 ft | 463 kts | 8° |
| 2026-05-09 07:21 | 50.03746 | -0.86692 | 31043 ft | 462 kts | 8° |
| 2026-05-09 07:21 | 50.06938 | -0.86238 | 30551 ft | 459 kts | 8° |
| 2026-05-09 07:21 | 50.10108 | -0.85786 | 30039 ft | 456 kts | 8° |
| 2026-05-09 07:22 | 50.13262 | -0.85337 | 29468 ft | 454 kts | 7° |
| 2026-05-09 07:22 | 50.16391 | -0.84889 | 28962 ft | 450 kts | 7° |
| 2026-05-09 07:22 | 50.19492 | -0.84444 | 28487 ft | 445 kts | 7° |
| 2026-05-09 07:22 | 50.22579 | -0.84003 | 28004 ft | 442 kts | 7° |
| 2026-05-09 07:23 | 50.25627 | -0.83564 | 27529 ft | 438 kts | 7° |
| 2026-05-09 07:23 | 50.28617 | -0.83134 | 27067 ft | 435 kts | 7° |
| 2026-05-09 07:23 | 50.31637 | -0.82699 | 26600 ft | 431 kts | 7° |
| 2026-05-09 07:23 | 50.34622 | -0.82269 | 26060 ft | 431 kts | 6° |
| 2026-05-09 07:24 | 50.37596 | -0.81841 | 25599 ft | 428 kts | 6° |
| 2026-05-09 07:24 | 50.40555 | -0.81412 | 25149 ft | 425 kts | 6° |
| 2026-05-09 07:24 | 50.43490 | -0.80988 | 24688 ft | 422 kts | 6° |
| 2026-05-09 07:24 | 50.46409 | -0.80564 | 24243 ft | 420 kts | 6° |
| 2026-05-09 07:25 | 50.49274 | -0.80148 | 23803 ft | 418 kts | 6° |
| 2026-05-09 07:25 | 50.52163 | -0.79727 | 23298 ft | 416 kts | 6° |
| 2026-05-09 07:25 | 50.55034 | -0.79310 | 22825 ft | 412 kts | 6° |
| 2026-05-09 07:25 | 50.57883 | -0.78895 | 22398 ft | 408 kts | 6° |
| 2026-05-09 07:26 | 50.60697 | -0.78484 | 21985 ft | 404 kts | 6° |
| 2026-05-09 07:26 | 50.63492 | -0.78076 | 21519 ft | 401 kts | 6° |
| 2026-05-09 07:26 | 50.66259 | -0.77672 | 21130 ft | 397 kts | 5° |
| 2026-05-09 07:26 | 50.69000 | -0.77270 | 20746 ft | 393 kts | 5° |
| 2026-05-09 07:27 | 50.71708 | -0.76873 | 20353 ft | 389 kts | 5° |
| 2026-05-09 07:27 | 50.74364 | -0.76484 | 19964 ft | 386 kts | 5° |
| 2026-05-09 07:27 | 50.77027 | -0.76093 | 19571 ft | 383 kts | 5° |
| 2026-05-09 07:27 | 50.79674 | -0.75702 | 19201 ft | 379 kts | 6° |
| 2026-05-09 07:28 | 50.82205 | -0.74762 | 18976 ft | 371 kts | 23° |
| 2026-05-09 07:28 | 50.84555 | -0.73227 | 18819 ft | 361 kts | 22° |
| 2026-05-09 07:28 | 50.86864 | -0.71771 | 18634 ft | 355 kts | 22° |
| 2026-05-09 07:28 | 50.89146 | -0.70314 | 18462 ft | 353 kts | 22° |
| 2026-05-09 07:29 | 50.91421 | -0.68853 | 18264 ft | 351 kts | 22° |
| 2026-05-09 07:29 | 50.93677 | -0.67400 | 18067 ft | 350 kts | 22° |
| 2026-05-09 07:29 | 50.95908 | -0.65959 | 17874 ft | 349 kts | 22° |
| 2026-05-09 07:29 | 50.98162 | -0.64503 | 17693 ft | 348 kts | 22° |
| 2026-05-09 07:30 | 51.00410 | -0.63046 | 17501 ft | 347 kts | 22° |
| 2026-05-09 07:30 | 51.02646 | -0.61598 | 17330 ft | 347 kts | 22° |
| 2026-05-09 07:30 | 51.04873 | -0.60153 | 17151 ft | 345 kts | 22° |
| 2026-05-09 07:30 | 51.07064 | -0.58731 | 16975 ft | 344 kts | 22° |
| 2026-05-09 07:31 | 51.09276 | -0.57293 | 16797 ft | 343 kts | 22° |
| 2026-05-09 07:31 | 51.11485 | -0.55854 | 16615 ft | 342 kts | 22° |
| 2026-05-09 07:31 | 51.13689 | -0.54418 | 16434 ft | 341 kts | 22° |
| 2026-05-09 07:31 | 51.15887 | -0.52986 | 16254 ft | 340 kts | 22° |
| 2026-05-09 07:32 | 51.18046 | -0.51577 | 16083 ft | 339 kts | 21° |
| 2026-05-09 07:32 | 51.20225 | -0.50152 | 15853 ft | 336 kts | 22° |
| 2026-05-09 07:32 | 51.22391 | -0.48736 | 15484 ft | 334 kts | 21° |
| 2026-05-09 07:32 | 51.24553 | -0.47320 | 15104 ft | 333 kts | 21° |
| 2026-05-09 07:33 | 51.26656 | -0.45941 | 14733 ft | 327 kts | 21° |
| 2026-05-09 07:33 | 51.30888 | -0.43164 | 13964 ft | 322 kts | 21° |
| 2026-05-09 07:33 | 51.32929 | -0.41821 | 13546 ft | 312 kts | 21° |
| 2026-05-09 07:34 | 51.34920 | -0.40512 | 13107 ft | 304 kts | 21° |
| 2026-05-09 07:34 | 51.36865 | -0.39231 | 12534 ft | 302 kts | 21° |
| 2026-05-09 07:34 | 51.38776 | -0.37971 | 11990 ft | 299 kts | 21° |
| 2026-05-09 07:34 | 51.40705 | -0.36701 | 11430 ft | 298 kts | 21° |
| 2026-05-09 07:35 | 51.42624 | -0.35435 | 10889 ft | 296 kts | 22° |
| 2026-05-09 07:35 | 51.44483 | -0.34072 | 10351 ft | 294 kts | 25° |
| 2026-05-09 07:35 | 51.46308 | -0.32660 | 9786 ft | 293 kts | 25° |
| 2026-05-09 07:35 | 51.48129 | -0.31273 | 9295 ft | 288 kts | 31° |
| 2026-05-09 07:36 | 51.49729 | -0.29422 | 8960 ft | 278 kts | 39° |
| 2026-05-09 07:36 | 51.51197 | -0.27497 | 8682 ft | 267 kts | 40° |
| 2026-05-09 07:36 | 51.52609 | -0.25638 | 8414 ft | 257 kts | 40° |
| 2026-05-09 07:36 | 51.53976 | -0.23853 | 8141 ft | 249 kts | 40° |
| 2026-05-09 07:37 | 51.55323 | -0.22109 | 7692 ft | 247 kts | 39° |
| 2026-05-09 07:37 | 51.56652 | -0.20382 | 7307 ft | 244 kts | 41° |
| 2026-05-09 07:37 | 51.57966 | -0.18669 | 6949 ft | 241 kts | 41° |
| 2026-05-09 07:37 | 51.59245 | -0.16995 | 6528 ft | 240 kts | 41° |
| 2026-05-09 07:38 | 51.60467 | -0.15398 | 6177 ft | 236 kts | 41° |
| 2026-05-09 07:38 | 51.61737 | -0.13736 | 5781 ft | 233 kts | 41° |
| 2026-05-09 07:38 | 51.62991 | -0.12092 | 5358 ft | 231 kts | 41° |
| 2026-05-09 07:38 | 51.64233 | -0.10465 | 4985 ft | 228 kts | 41° |
| 2026-05-09 07:39 | 51.65463 | -0.08849 | 4539 ft | 228 kts | 41° |
| 2026-05-09 07:39 | 51.66682 | -0.07249 | 4170 ft | 226 kts | 42° |
| 2026-05-09 07:39 | 51.67907 | -0.05636 | 3885 ft | 228 kts | 41° |
| 2026-05-09 07:39 | 51.69139 | -0.04054 | 3637 ft | 230 kts | 38° |
| 2026-05-09 07:40 | 51.70475 | -0.02606 | 3345 ft | 232 kts | 35° |
| 2026-05-09 07:40 | 51.71810 | -0.01169 | 3145 ft | 227 kts | 39° |
| 2026-05-09 07:40 | 51.73023 | 0.00403 | 2977 ft | 221 kts | 43° |
| 2026-05-09 07:40 | 51.73973 | 0.01756 | 2798 ft | 220 kts | 45° |
| 2026-05-09 07:41 | 51.75100 | 0.03422 | 2583 ft | 217 kts | 46° |
| 2026-05-09 07:41 | 51.76170 | 0.05024 | 2489 ft | 200 kts | 45° |
| 2026-05-09 07:41 | 51.77127 | 0.06447 | 2497 ft | 182 kts | 46° |
| 2026-05-09 07:41 | 51.78052 | 0.07819 | 2483 ft | 179 kts | 46° |
| 2026-05-09 07:42 | 51.78958 | 0.09181 | 2481 ft | 174 kts | 46° |
| 2026-05-09 07:42 | 51.79836 | 0.10496 | 2415 ft | 172 kts | 46° |
| 2026-05-09 07:42 | 51.80704 | 0.11799 | 2214 ft | 168 kts | 46° |
| 2026-05-09 07:42 | 51.81566 | 0.13084 | 2023 ft | 168 kts | 46° |
| 2026-05-09 07:43 | 51.82397 | 0.14329 | 1826 ft | 155 kts | 46° |
| 2026-05-09 07:43 | 51.83143 | 0.15445 | 1624 ft | 144 kts | 46° |
| 2026-05-09 07:43 | 51.83871 | 0.16539 | 1433 ft | 142 kts | 46° |
| 2026-05-09 07:43 | 51.84597 | 0.17627 | 1285 ft | 145 kts | 44° |
| 2026-05-09 07:44 | 51.85340 | 0.18732 | 1099 ft | 145 kts | 44° |
| 2026-05-09 07:44 | 51.86077 | 0.19823 | 893 ft | 141 kts | 44° |
| 2026-05-09 07:44 | 51.86788 | 0.20896 | 662 ft | 138 kts | 45° |
| 2026-05-09 07:44 | 51.87487 | 0.21951 | 449 ft | 137 kts | 44° |
| 2026-05-09 07:45 | 51.88167 | 0.22979 | 335 ft | 124 kts | 44° |
| 2026-05-09 07:45 | 51.88724 | 0.23816 | 337 ft | 88 kts | 43° |
| 2026-05-09 07:45 | 51.89003 | 0.24254 | 342 ft | 33 kts | 55° |
| 2026-05-09 07:45 | 51.89103 | 0.24549 | 344 ft | 22 kts | 68° |
| 2026-05-09 07:46 | 51.89152 | 0.24741 | 348 ft | 12 kts | 66° |
| 2026-05-09 07:46 | 51.89165 | 0.24865 | 347 ft | 8 kts | 111° |
| 2026-05-09 07:46 | 51.89159 | 0.24949 | 350 ft | 9 kts | 58° |
| 2026-05-09 07:46 | 51.89209 | 0.25036 | 346 ft | 11 kts | 53° |
| 2026-05-09 07:47 | 51.89238 | 0.25110 | 354 ft | 7 kts | 57° |
| 2026-05-09 07:47 | 51.89270 | 0.25185 | 348 ft | 10 kts | 51° |
| 2026-05-09 07:47 | 51.89328 | 0.25277 | 355 ft | 13 kts | 41° |
| 2026-05-09 07:47 | 51.89391 | 0.25372 | 346 ft | 12 kts | 46° |
| 2026-05-09 07:48 | 51.89420 | 0.25474 | 346 ft | 8 kts | 122° |
| 2026-05-09 07:48 | 51.89369 | 0.25546 | 346 ft | 12 kts | 148° |
| 2026-05-09 07:48 | 51.89294 | 0.25653 | 346 ft | 16 kts | 134° |
| 2026-05-09 07:48 | 51.89221 | 0.25773 | 352 ft | 15 kts | 135° |
| 2026-05-09 07:49 | 51.89166 | 0.25874 | 352 ft | 5 kts | 132° |
| 2026-05-09 07:49 | 51.89156 | 0.25893 | 347 ft | 1 kts | 131° |
| 2026-05-09 07:49 | 51.89142 | 0.25915 | 350 ft | 5 kts | 134° |
| 2026-05-09 07:49 | 51.89112 | 0.25912 | 346 ft | 6 kts | 215° |
| 2026-05-09 07:50 | 51.89093 | 0.25885 | 351 ft | 1 kts | 223° |
| 2026-05-09 07:50 | 51.89093 | 0.25884 | 351 ft | 0 kts | 223° |